Tulsa, OK

6:22 AM CDT on September 30, 2016 (GMT -0500)
61st and Memorial | | Change Station

Elev 715 ft 36.08 °N, 95.89 °W | Updated 30 seconds ago

Clear
Clear
48.6 °F
Feels Like 49 °F
N
0.0
Wind Variable Wind from West

Today
High -- | Low -- °F
--% Chance of Precip.
Yesterday
High -- | Low -- °F
Precip. -- in
Pressure 30.25 in
Visibility 10.0 miles
Clouds Clear
Windchill 49 °F
Dew Point 48 °F
Humidity 98%
Rainfall 0.00 in
Snow Depth Not available.
7:18 AM 7:07 PM
Waning Crescent, 0% visible
METAR KRVS 301053Z 00000KT 10SM CLR 10/08 A3023 RMK AO2 SLP244 T01000083
Pressure 30.25 in
Visibility 10.0 miles
Clouds Clear
Windchill 49 °F
Dew Point 48 °F
Humidity 98%
Rainfall 0.00 in
Snow Depth Not available.
7:18 AM 7:07 PM
Waning Crescent, 0% visible
METAR KRVS 301053Z 00000KT 10SM CLR 10/08 A3023 RMK AO2 SLP244 T01000083

10-Day Weather Forecast

Almanac

Astronomy

Sep. 30, 2016 Rise Set
Actual Time
Civil Twilight
Nautical Twilight
Astronomical Twilight
Moon
Length of Visible Light
Length of Day
Tomorrow will be .
, % of the Moon is Illuminated

Today's Extremes

State Highs State Lows

Community

WunderPhotos

Upload Photos

1,942,694 photos uploaded!

WunderBlog® & News

Nearby

Air Quality

  Air Quality AQ Index Pollutant
Not available.

Snow Depth

Station Depth Elevation

Earthquake Activity

City Distance Mag. Time & Date
Minimum magnitude displayed is 2.5.

Coastal Water Temperatures

Place Temperature

Stations

Nearby Weather Stations

Station Location Temp. Windchill Dew Point Humidity Wind Precip. Elev Updated Type
                   

Watches & Warnings

There are currently no watches in effect.